AirNav   Duncan Aviation - Near you to keep you flying
 
 396 users online  

7LA5 Petroleum Helicopters Cameron Heliport
Cameron, Louisiana, USA

GOING TO CAMERON?


FAA INFORMATION EFFECTIVE 08 SEPTEMBER 2022

Location

FAA Identifier: 7LA5
Lat/Long: 29-46-39.3500N 093-17-59.4300W
29-46.655833N 093-17.990500W
29.7775972,-93.2998417
(estimated)
Elevation: 5 ft. / 2 m (estimated)
Variation: 05E (1985)
From city: 1 mile SE of CAMERON, LA
Time zone: UTC -5 (UTC -6 during Standard Time)
Zip code: 70631

Heliport Operations

Heliport use: Private use. Permission required prior to landing
Activation date: 02/1960
Control tower: no
ARTCC: HOUSTON CENTER
FSS: DE RIDDER FLIGHT SERVICE STATION
Attendance: UNATNDD
Wind indicator: yes
Segmented circle: no

Heliport Communications

UNICOM: 123.05

Nearby radio navigation aids

VOR radial/distance  VOR name  Freq  Var
LCHr198/24.1LAKE CHARLES VORTAC113.4007E
BPTr098/38.6BEAUMONT VOR/DME114.5007E
SBIr075/38.8SABINE PASS VOR/DME115.4007E

 
NDB name  Hdg/Dist  Freq  Var  ID
SULPHUR162/26.027804EAUR .- ..- .-.

Heliport Services

Fuel available: A
Airframe service: NONE
Powerplant service: NONE

Runway Information

Helipad H1

Dimensions: 700 x 200 ft. / 213 x 61 m
Surface: concrete/turf
Latitude: 29-46.655833N
Longitude: 093-17.990500W
Elevation: 5.0 ft.
Traffic pattern: leftleft

Heliport Ownership and Management from official FAA records

Ownership: Privately-owned
Owner: PETROLEUM HELICOPTERS
PO BOX 386
CAMERON, LA 70631
Phone 337-775-7157
Manager: MIKE WASSIK
BOX 386
CAMERON, LA 70631
Phone 337-775-7157
LFT OFFICE 337-235-2453

Additional Remarks

A52-H1 3 TWRS 1/2 MI N, HOUSES 1/4 MI W AND 2 RDO TWRS ON PAD.
OPNS FREQ. - 129.10
CVW AWOS-3 ASSOCIATED WITH PETROLEUM HELICOPTERS CAMERON 7LA5.
FOR CD CTC LAKE CHARLES APCH AT 337-480-3103, WHEN APCH CLSD CTC HOUSTON ARTCC AT 281-230-5622.

Instrument Procedures

There are no published instrument procedures at 7LA5.

Some nearby airports with instrument procedures:

KLCH - Lake Charles Regional Airport (21 nm N)
KUXL - Southland Field Airport (22 nm N)
KCWF - Chennault International Airport (27 nm N)
KORG - Orange County Airport (31 nm NW)
6R1 - Welsh Airport (37 nm NE)
 
Loc | Ops | Rwys | IFR | FBO | Links
Com | Nav | Svcs | Stats | Notes
Area around 7LA5 (Petroleum Helicopters Cameron Heliport)
 
Road maps at: MapQuest Bing Google
 
Aerial photo
No photo
 
Sectional chart

 
Airport distance calculator
Flying to Petroleum Helicopters Cameron Heliport? Find the distance to fly.

From to 7LA5

Sunrise and sunset
Times for 02-Oct-2022
 Local
(UTC-5)
 Zulu
(UTC)
Morning civil twilight06:4411:44
Sunrise07:0812:08
Sunset18:5723:57
Evening civil twilight19:2100:21

Current date and time
Zulu (UTC)  02-Oct-2022 10:19:00
Local (UTC-5)  02-Oct-2022 05:19:00
 
METAR
KUXL 
22nm N 
020955Z AUTO 00000KT 10SM CLR 11/08 A3007 RMK AO2 T01140077
KLCH 
22nm N 
020953Z AUTO 03003KT 10SM CLR 14/08 A3006 RMK AO2 SLP187 T01390083
KCWF 
27nm N 
020955Z AUTO 03004KT 10SM CLR 14/09 A3007 RMK AO2 T01440086
KORG 
32nm NW 
020955Z AUTO 00000KT 10SM CLR 12/10 A3009 RMK AO2 T01180101
KBPT 
40nm W 
020953Z AUTO 03003KT 10SM CLR 13/09 A3006 RMK AO2 SLP179 T01280094 $
K5R8 
41nm N 
020955Z AUTO 00000KT 10SM CLR 09/08 A3008 RMK AO2 T00930080
K3R7 
43nm NE 
020955Z AUTO 00000KT 10SM CLR 12/10 A3007 RMK AO2 T01190097
TAF
KLCH 
22nm N 
020520Z 0206/0306 VRB04KT P6SM SKC FM021500 04007KT P6SM SKC FM030100 VRB03KT P6SM SKC
NOTAMs
Click for the latest NOTAMs
NOTAMs are issued by the DoD/FAA and will open in a separate window not controlled by AirNav.

 

 
 

Would you like to see your business listed on this page?

 If your business provides an interesting product or service to pilots, flight crews, aircraft, or users of the Petroleum Helicopters Cameron Heliport, you should consider listing it here.  To start the listing process, click on the button below
 
Add a business
 

Other Pages about Petroleum Helicopters Cameron Heliport

Update a link
 
Copyright © AirNav, LLC. All rights reserved. Privacy Policy  Contact